sensor_id;sensor_type;location;lat;lon;timestamp;pressure;altitude;pressure_sealevel;temperature;humidity
34205;BME280;20471;49.680;20.074;2023-02-11T00:01:26;98778.15;;;-2.92;64.02
34205;BME280;20471;49.680;20.074;2023-02-11T00:03:56;98774.17;;;-2.93;63.97
34205;BME280;20471;49.680;20.074;2023-02-11T00:06:26;98772.14;;;-2.95;63.91
34205;BME280;20471;49.680;20.074;2023-02-11T00:08:55;98769.14;;;-2.98;63.94
34205;BME280;20471;49.680;20.074;2023-02-11T00:11:24;98776.30;;;-2.99;63.86
34205;BME280;20471;49.680;20.074;2023-02-11T00:14:01;98787.05;;;-3.00;63.98
34205;BME280;20471;49.680;20.074;2023-02-11T00:16:29;98788.71;;;-3.01;63.87
34205;BME280;20471;49.680;20.074;2023-02-11T00:19:00;98789.61;;;-3.04;63.83
34205;BME280;20471;49.680;20.074;2023-02-11T00:21:28;98787.23;;;-3.05;63.84
34205;BME280;20471;49.680;20.074;2023-02-11T00:23:58;98785.30;;;-3.08;63.86
34205;BME280;20471;49.680;20.074;2023-02-11T00:26:33;98789.10;;;-3.13;64.11
34205;BME280;20471;49.680;20.074;2023-02-11T00:29:03;98784.78;;;-3.17;63.98
34205;BME280;20471;49.680;20.074;2023-02-11T00:31:32;98791.70;;;-3.18;64.02
34205;BME280;20471;49.680;20.074;2023-02-11T00:34:00;98791.20;;;-3.18;63.87
34205;BME280;20471;49.680;20.074;2023-02-11T00:36:29;98783.86;;;-3.22;63.78
34205;BME280;20471;49.680;20.074;2023-02-11T00:38:58;98776.44;;;-3.34;63.81
34205;BME280;20471;49.680;20.074;2023-02-11T00:41:27;98783.11;;;-3.39;63.81
34205;BME280;20471;49.680;20.074;2023-02-11T00:43:55;98784.92;;;-3.43;63.88
34205;BME280;20471;49.680;20.074;2023-02-11T00:46:23;98779.55;;;-3.56;63.88
34205;BME280;20471;49.680;20.074;2023-02-11T00:48:51;98777.25;;;-3.65;63.84
34205;BME280;20471;49.680;20.074;2023-02-11T00:51:25;98770.76;;;-3.71;64.02
34205;BME280;20471;49.680;20.074;2023-02-11T00:53:53;98767.11;;;-3.75;64.08
34205;BME280;20471;49.680;20.074;2023-02-11T00:56:22;98757.60;;;-3.80;64.03
34205;BME280;20471;49.680;20.074;2023-02-11T00:58:50;98750.30;;;-3.85;64.05
34205;BME280;20471;49.680;20.074;2023-02-11T01:01:19;98746.33;;;-3.92;64.10
34205;BME280;20471;49.680;20.074;2023-02-11T01:03:47;98749.30;;;-4.01;64.03
34205;BME280;20471;49.680;20.074;2023-02-11T01:06:15;98742.66;;;-4.08;64.26
34205;BME280;20471;49.680;20.074;2023-02-11T01:08:44;98739.59;;;-4.16;64.35
34205;BME280;20471;49.680;20.074;2023-02-11T01:11:16;98736.21;;;-4.27;64.40
34205;BME280;20471;49.680;20.074;2023-02-11T01:13:46;98737.02;;;-4.33;64.38
34205;BME280;20471;49.680;20.074;2023-02-11T01:16:15;98728.60;;;-4.39;64.28
34205;BME280;20471;49.680;20.074;2023-02-11T01:18:45;98724.30;;;-4.47;64.55
34205;BME280;20471;49.680;20.074;2023-02-11T01:21:13;98726.02;;;-4.52;64.74
34205;BME280;20471;49.680;20.074;2023-02-11T01:23:41;98722.38;;;-4.53;64.71
34205;BME280;20471;49.680;20.074;2023-02-11T01:26:09;98718.40;;;-4.54;64.56
34205;BME280;20471;49.680;20.074;2023-02-11T01:28:38;98714.34;;;-4.57;64.60
34205;BME280;20471;49.680;20.074;2023-02-11T01:31:06;98713.19;;;-4.58;64.76
34205;BME280;20471;49.680;20.074;2023-02-11T01:33:34;98704.39;;;-4.61;64.67
34205;BME280;20471;49.680;20.074;2023-02-11T01:36:03;98699.52;;;-4.68;64.72
34205;BME280;20471;49.680;20.074;2023-02-11T01:38:33;98699.27;;;-4.73;64.92
34205;BME280;20471;49.680;20.074;2023-02-11T01:41:07;98693.95;;;-4.75;64.93
34205;BME280;20471;49.680;20.074;2023-02-11T01:43:38;98687.98;;;-4.79;65.03
34205;BME280;20471;49.680;20.074;2023-02-11T01:46:32;98683.35;;;-4.81;65.07
34205;BME280;20471;49.680;20.074;2023-02-11T01:49:20;98673.19;;;-4.87;65.03
34205;BME280;20471;49.680;20.074;2023-02-11T01:51:58;98666.00;;;-4.91;65.08
34205;BME280;20471;49.680;20.074;2023-02-11T01:54:35;98666.89;;;-4.97;65.06
34205;BME280;20471;49.680;20.074;2023-02-11T01:57:25;98659.30;;;-5.09;65.19
34205;BME280;20471;49.680;20.074;2023-02-11T02:02:43;98656.49;;;-5.22;65.48
34205;BME280;20471;49.680;20.074;2023-02-11T02:07:57;98644.42;;;-5.22;65.42
34205;BME280;20471;49.680;20.074;2023-02-11T02:10:27;98637.06;;;-5.23;65.68
34205;BME280;20471;49.680;20.074;2023-02-11T02:12:56;98640.53;;;-5.22;65.87
34205;BME280;20471;49.680;20.074;2023-02-11T02:15:31;98634.14;;;-5.20;65.80
34205;BME280;20471;49.680;20.074;2023-02-11T02:23:48;98639.81;;;-5.25;66.01
34205;BME280;20471;49.680;20.074;2023-02-11T02:35:23;98630.33;;;-5.12;66.30
34205;BME280;20471;49.680;20.074;2023-02-11T02:38:21;98617.09;;;-5.08;66.45
34205;BME280;20471;49.680;20.074;2023-02-11T02:43:19;98599.25;;;-5.02;66.48
34205;BME280;20471;49.680;20.074;2023-02-11T02:45:48;98598.07;;;-5.00;66.55
34205;BME280;20471;49.680;20.074;2023-02-11T03:02:12;98591.57;;;-4.76;66.95
34205;BME280;20471;49.680;20.074;2023-02-11T03:05:05;98588.27;;;-4.70;66.94
34205;BME280;20471;49.680;20.074;2023-02-11T03:07:43;98592.98;;;-4.63;66.99
34205;BME280;20471;49.680;20.074;2023-02-11T03:10:21;98602.61;;;-4.57;66.96
34205;BME280;20471;49.680;20.074;2023-02-11T03:12:53;98605.84;;;-4.52;67.03
34205;BME280;20471;49.680;20.074;2023-02-11T03:15:23;98597.09;;;-4.47;67.06
34205;BME280;20471;49.680;20.074;2023-02-11T03:17:55;98587.10;;;-4.41;66.98
34205;BME280;20471;49.680;20.074;2023-02-11T03:20:26;98590.92;;;-4.37;66.98
34205;BME280;20471;49.680;20.074;2023-02-11T03:23:05;98591.56;;;-4.33;67.06
34205;BME280;20471;49.680;20.074;2023-02-11T03:25:40;98593.50;;;-4.30;67.05
34205;BME280;20471;49.680;20.074;2023-02-11T03:28:34;98590.86;;;-4.27;67.00
34205;BME280;20471;49.680;20.074;2023-02-11T03:31:17;98594.00;;;-4.24;66.97
34205;BME280;20471;49.680;20.074;2023-02-11T03:33:59;98591.41;;;-4.19;67.17
34205;BME280;20471;49.680;20.074;2023-02-11T03:36:37;98585.29;;;-4.13;67.29
34205;BME280;20471;49.680;20.074;2023-02-11T03:39:08;98578.17;;;-4.12;67.31
34205;BME280;20471;49.680;20.074;2023-02-11T03:41:40;98574.17;;;-4.13;67.36
34205;BME280;20471;49.680;20.074;2023-02-11T03:44:11;98574.76;;;-4.14;67.23
34205;BME280;20471;49.680;20.074;2023-02-11T03:46:47;98572.12;;;-4.14;67.25
34205;BME280;20471;49.680;20.074;2023-02-11T03:49:19;98563.96;;;-4.13;67.22
34205;BME280;20471;49.680;20.074;2023-02-11T03:51:50;98554.60;;;-4.09;67.23
34205;BME280;20471;49.680;20.074;2023-02-11T03:54:23;98545.91;;;-4.08;67.28
34205;BME280;20471;49.680;20.074;2023-02-11T03:56:56;98535.29;;;-4.07;67.36
34205;BME280;20471;49.680;20.074;2023-02-11T03:59:26;98523.08;;;-4.05;67.40
34205;BME280;20471;49.680;20.074;2023-02-11T04:01:55;98505.29;;;-4.02;67.64
34205;BME280;20471;49.680;20.074;2023-02-11T04:04:25;98504.15;;;-3.95;67.80
34205;BME280;20471;49.680;20.074;2023-02-11T04:06:53;98509.23;;;-3.88;67.92
34205;BME280;20471;49.680;20.074;2023-02-11T04:09:21;98495.17;;;-3.86;68.14
34205;BME280;20471;49.680;20.074;2023-02-11T04:11:49;98491.69;;;-3.81;68.20
34205;BME280;20471;49.680;20.074;2023-02-11T04:14:17;98489.40;;;-3.75;68.24
34205;BME280;20471;49.680;20.074;2023-02-11T04:16:45;98480.82;;;-3.71;68.34
34205;BME280;20471;49.680;20.074;2023-02-11T04:19:13;98467.48;;;-3.65;68.33
34205;BME280;20471;49.680;20.074;2023-02-11T04:21:41;98461.00;;;-3.61;68.36
34205;BME280;20471;49.680;20.074;2023-02-11T04:24:09;98462.19;;;-3.54;68.27
34205;BME280;20471;49.680;20.074;2023-02-11T04:26:38;98463.89;;;-3.43;68.40
34205;BME280;20471;49.680;20.074;2023-02-11T04:29:06;98459.20;;;-3.30;68.56
34205;BME280;20471;49.680;20.074;2023-02-11T04:31:34;98448.63;;;-3.19;68.48
34205;BME280;20471;49.680;20.074;2023-02-11T04:34:03;98446.53;;;-3.08;68.37
34205;BME280;20471;49.680;20.074;2023-02-11T04:36:31;98444.94;;;-3.01;68.48
34205;BME280;20471;49.680;20.074;2023-02-11T04:38:59;98447.73;;;-2.95;68.43
34205;BME280;20471;49.680;20.074;2023-02-11T04:41:27;98435.99;;;-2.88;68.31
34205;BME280;20471;49.680;20.074;2023-02-11T04:43:55;98421.89;;;-2.83;68.30
34205;BME280;20471;49.680;20.074;2023-02-11T04:46:23;98413.39;;;-2.79;68.22
34205;BME280;20471;49.680;20.074;2023-02-11T04:48:51;98404.95;;;-2.75;68.22
34205;BME280;20471;49.680;20.074;2023-02-11T04:51:20;98402.06;;;-2.69;68.25
34205;BME280;20471;49.680;20.074;2023-02-11T04:53:48;98404.27;;;-2.63;68.17
34205;BME280;20471;49.680;20.074;2023-02-11T04:56:16;98401.27;;;-2.57;67.86
34205;BME280;20471;49.680;20.074;2023-02-11T04:58:44;98400.77;;;-2.52;68.02
34205;BME280;20471;49.680;20.074;2023-02-11T05:01:14;98395.16;;;-2.48;67.90
34205;BME280;20471;49.680;20.074;2023-02-11T05:03:43;98388.70;;;-2.43;67.89
34205;BME280;20471;49.680;20.074;2023-02-11T05:06:11;98388.88;;;-2.39;67.69
34205;BME280;20471;49.680;20.074;2023-02-11T05:08:39;98395.38;;;-2.33;67.60
34205;BME280;20471;49.680;20.074;2023-02-11T05:11:14;98401.13;;;-2.27;67.59
34205;BME280;20471;49.680;20.074;2023-02-11T05:13:43;98401.50;;;-2.23;67.56
34205;BME280;20471;49.680;20.074;2023-02-11T05:16:12;98399.96;;;-2.19;67.57
34205;BME280;20471;49.680;20.074;2023-02-11T05:18:41;98394.17;;;-2.14;67.47
34205;BME280;20471;49.680;20.074;2023-02-11T05:21:13;98396.63;;;-2.08;67.48
34205;BME280;20471;49.680;20.074;2023-02-11T05:23:42;98395.17;;;-2.03;67.30
34205;BME280;20471;49.680;20.074;2023-02-11T05:26:11;98388.92;;;-1.97;67.33
34205;BME280;20471;49.680;20.074;2023-02-11T05:28:41;98386.27;;;-1.92;67.30
34205;BME280;20471;49.680;20.074;2023-02-11T05:31:10;98388.77;;;-1.88;67.12
34205;BME280;20471;49.680;20.074;2023-02-11T05:33:40;98389.48;;;-1.86;67.13
34205;BME280;20471;49.680;20.074;2023-02-11T05:36:11;98381.77;;;-1.84;67.06
34205;BME280;20471;49.680;20.074;2023-02-11T05:38:40;98380.55;;;-1.82;67.12
34205;BME280;20471;49.680;20.074;2023-02-11T05:41:09;98389.82;;;-1.78;67.07
34205;BME280;20471;49.680;20.074;2023-02-11T05:43:38;98398.89;;;-1.76;67.00
34205;BME280;20471;49.680;20.074;2023-02-11T05:46:06;98401.67;;;-1.76;67.04
34205;BME280;20471;49.680;20.074;2023-02-11T05:48:34;98395.31;;;-1.76;67.01
34205;BME280;20471;49.680;20.074;2023-02-11T05:51:02;98388.52;;;-1.74;66.97
34205;BME280;20471;49.680;20.074;2023-02-11T05:53:30;98393.96;;;-1.74;66.99
34205;BME280;20471;49.680;20.074;2023-02-11T05:55:58;98399.59;;;-1.71;67.02
34205;BME280;20471;49.680;20.074;2023-02-11T05:58:27;98395.80;;;-1.68;66.96
34205;BME280;20471;49.680;20.074;2023-02-11T06:00:55;98391.58;;;-1.65;67.03
34205;BME280;20471;49.680;20.074;2023-02-11T06:03:23;98389.79;;;-1.65;67.02
34205;BME280;20471;49.680;20.074;2023-02-11T06:05:51;98391.65;;;-1.64;67.09
34205;BME280;20471;49.680;20.074;2023-02-11T06:08:19;98396.06;;;-1.62;67.05
34205;BME280;20471;49.680;20.074;2023-02-11T06:10:47;98392.33;;;-1.59;66.97
34205;BME280;20471;49.680;20.074;2023-02-11T06:13:16;98386.61;;;-1.56;66.92
34205;BME280;20471;49.680;20.074;2023-02-11T06:15:54;98384.08;;;-1.52;66.93
34205;BME280;20471;49.680;20.074;2023-02-11T06:18:23;98385.48;;;-1.50;66.87
34205;BME280;20471;49.680;20.074;2023-02-11T06:20:51;98379.27;;;-1.47;66.90
34205;BME280;20471;49.680;20.074;2023-02-11T06:23:20;98373.81;;;-1.43;67.00
34205;BME280;20471;49.680;20.074;2023-02-11T06:25:48;98368.27;;;-1.39;66.86
34205;BME280;20471;49.680;20.074;2023-02-11T06:28:16;98367.09;;;-1.35;66.77
34205;BME280;20471;49.680;20.074;2023-02-11T06:30:44;98369.41;;;-1.31;66.90
34205;BME280;20471;49.680;20.074;2023-02-11T06:33:12;98367.58;;;-1.28;66.84
34205;BME280;20471;49.680;20.074;2023-02-11T06:35:40;98366.09;;;-1.27;66.80
34205;BME280;20471;49.680;20.074;2023-02-11T06:38:08;98366.19;;;-1.23;66.69
34205;BME280;20471;49.680;20.074;2023-02-11T06:40:36;98363.54;;;-1.19;66.77
34205;BME280;20471;49.680;20.074;2023-02-11T06:43:04;98362.17;;;-1.15;66.69
34205;BME280;20471;49.680;20.074;2023-02-11T06:45:33;98356.80;;;-1.12;66.69
34205;BME280;20471;49.680;20.074;2023-02-11T06:48:01;98357.59;;;-1.10;66.62
34205;BME280;20471;49.680;20.074;2023-02-11T06:50:29;98359.01;;;-1.10;66.61
34205;BME280;20471;49.680;20.074;2023-02-11T06:53:00;98358.02;;;-1.09;66.63
34205;BME280;20471;49.680;20.074;2023-02-11T06:55:28;98350.23;;;-1.06;66.69
34205;BME280;20471;49.680;20.074;2023-02-11T06:57:56;98339.70;;;-1.05;66.65
34205;BME280;20471;49.680;20.074;2023-02-11T07:00:24;98331.59;;;-1.03;66.58
34205;BME280;20471;49.680;20.074;2023-02-11T07:02:52;98337.42;;;-0.98;66.60
34205;BME280;20471;49.680;20.074;2023-02-11T07:05:20;98338.89;;;-0.94;66.69
34205;BME280;20471;49.680;20.074;2023-02-11T07:07:48;98337.33;;;-0.90;66.52
34205;BME280;20471;49.680;20.074;2023-02-11T07:10:16;98336.70;;;-0.82;66.63
34205;BME280;20471;49.680;20.074;2023-02-11T07:12:44;98322.86;;;-0.74;66.49
34205;BME280;20471;49.680;20.074;2023-02-11T07:15:13;98316.55;;;-0.66;66.58
34205;BME280;20471;49.680;20.074;2023-02-11T07:17:41;98319.16;;;-0.59;66.65
34205;BME280;20471;49.680;20.074;2023-02-11T07:20:10;98323.20;;;-0.52;66.51
34205;BME280;20471;49.680;20.074;2023-02-11T07:22:40;98327.59;;;-0.45;66.33
34205;BME280;20471;49.680;20.074;2023-02-11T07:25:08;98330.85;;;-0.39;66.35
34205;BME280;20471;49.680;20.074;2023-02-11T07:27:36;98334.91;;;-0.32;66.30
34205;BME280;20471;49.680;20.074;2023-02-11T07:30:05;98328.52;;;-0.25;66.29
34205;BME280;20471;49.680;20.074;2023-02-11T07:32:33;98322.02;;;-0.21;66.25
34205;BME280;20471;49.680;20.074;2023-02-11T07:35:01;98316.44;;;-0.15;66.14
34205;BME280;20471;49.680;20.074;2023-02-11T07:37:29;98321.97;;;-0.07;66.06
34205;BME280;20471;49.680;20.074;2023-02-11T07:39:57;98314.45;;;0.00;65.89
34205;BME280;20471;49.680;20.074;2023-02-11T07:42:25;98310.22;;;0.07;65.71
34205;BME280;20471;49.680;20.074;2023-02-11T07:44:53;98311.38;;;0.12;65.56
34205;BME280;20471;49.680;20.074;2023-02-11T07:47:22;98313.06;;;0.15;65.56
34205;BME280;20471;49.680;20.074;2023-02-11T07:49:50;98317.58;;;0.18;65.41
34205;BME280;20471;49.680;20.074;2023-02-11T07:52:19;98322.68;;;0.23;65.46
34205;BME280;20471;49.680;20.074;2023-02-11T07:54:47;98325.73;;;0.27;65.29
34205;BME280;20471;49.680;20.074;2023-02-11T07:57:15;98321.63;;;0.31;65.16
34205;BME280;20471;49.680;20.074;2023-02-11T07:59:43;98322.97;;;0.37;65.08
34205;BME280;20471;49.680;20.074;2023-02-11T08:09:06;98306.79;;;0.53;64.85
34205;BME280;20471;49.680;20.074;2023-02-11T08:22:17;98300.80;;;0.54;64.59
34205;BME280;20471;49.680;20.074;2023-02-11T08:24:46;98304.41;;;0.58;64.60
34205;BME280;20471;49.680;20.074;2023-02-11T08:27:16;98299.83;;;0.60;64.54
34205;BME280;20471;49.680;20.074;2023-02-11T08:29:49;98300.40;;;0.63;64.52
34205;BME280;20471;49.680;20.074;2023-02-11T08:32:20;98296.59;;;0.73;64.43
34205;BME280;20471;49.680;20.074;2023-02-11T09:12:11;98282.52;;;3.16;62.04
34205;BME280;20471;49.680;20.074;2023-02-11T09:14:39;98282.59;;;3.47;61.64
34205;BME280;20471;49.680;20.074;2023-02-11T09:17:07;98288.60;;;3.71;61.33
34205;BME280;20471;49.680;20.074;2023-02-11T09:19:36;98289.64;;;3.93;60.93
34205;BME280;20471;49.680;20.074;2023-02-11T09:22:04;98289.85;;;4.08;60.56
34205;BME280;20471;49.680;20.074;2023-02-11T09:24:32;98295.69;;;4.10;60.28
34205;BME280;20471;49.680;20.074;2023-02-11T09:27:00;98295.48;;;4.16;60.16
34205;BME280;20471;49.680;20.074;2023-02-11T09:29:28;98292.26;;;4.23;60.19
34205;BME280;20471;49.680;20.074;2023-02-11T09:31:57;98290.59;;;4.24;59.85
34205;BME280;20471;49.680;20.074;2023-02-11T09:34:25;98291.35;;;4.20;59.56
34205;BME280;20471;49.680;20.074;2023-02-11T09:36:54;98286.73;;;4.09;59.18
34205;BME280;20471;49.680;20.074;2023-02-11T09:39:22;98285.51;;;4.11;59.24
34205;BME280;20471;49.680;20.074;2023-02-11T09:44:34;98278.43;;;4.52;58.84
34205;BME280;20471;49.680;20.074;2023-02-11T09:47:06;98268.89;;;4.54;58.56
34205;BME280;20471;49.680;20.074;2023-02-11T09:49:48;98261.70;;;4.71;58.55
34205;BME280;20471;49.680;20.074;2023-02-11T09:54:59;98250.36;;;5.24;58.25
34205;BME280;20471;49.680;20.074;2023-02-11T09:57:35;98242.20;;;5.48;57.71
34205;BME280;20471;49.680;20.074;2023-02-11T10:08:07;98236.17;;;5.35;56.50
34205;BME280;20471;49.680;20.074;2023-02-11T10:10:40;98237.23;;;5.52;56.60
34205;BME280;20471;49.680;20.074;2023-02-11T10:16:49;98231.30;;;5.65;56.17
34205;BME280;20471;49.680;20.074;2023-02-11T10:22:39;98230.83;;;5.74;55.65
34205;BME280;20471;49.680;20.074;2023-02-11T10:25:17;98227.90;;;5.58;55.26
34205;BME280;20471;49.680;20.074;2023-02-11T10:27:47;98228.78;;;5.48;55.35
34205;BME280;20471;49.680;20.074;2023-02-11T10:30:36;98230.63;;;5.40;55.12
34205;BME280;20471;49.680;20.074;2023-02-11T10:33:14;98228.23;;;5.34;55.16
34205;BME280;20471;49.680;20.074;2023-02-11T10:35:44;98221.75;;;5.28;55.22
34205;BME280;20471;49.680;20.074;2023-02-11T10:38:13;98216.06;;;5.18;55.14
34205;BME280;20471;49.680;20.074;2023-02-11T10:40:41;98211.39;;;5.09;55.13
34205;BME280;20471;49.680;20.074;2023-02-11T10:43:16;98203.86;;;5.02;55.16
34205;BME280;20471;49.680;20.074;2023-02-11T10:45:51;98199.37;;;4.98;55.28
34205;BME280;20471;49.680;20.074;2023-02-11T10:48:47;98201.80;;;4.91;55.21
34205;BME280;20471;49.680;20.074;2023-02-11T10:51:32;98191.59;;;4.80;55.14
34205;BME280;20471;49.680;20.074;2023-02-11T10:56:36;98175.21;;;4.63;55.17
34205;BME280;20471;49.680;20.074;2023-02-11T11:01:46;98160.95;;;4.46;55.11
34205;BME280;20471;49.680;20.074;2023-02-11T11:09:53;98148.52;;;4.39;54.98
34205;BME280;20471;49.680;20.074;2023-02-11T11:15:12;98151.77;;;4.17;54.89
34205;BME280;20471;49.680;20.074;2023-02-11T11:17:42;98153.53;;;4.09;54.87
34205;BME280;20471;49.680;20.074;2023-02-11T11:20:27;98150.02;;;4.03;54.98
34205;BME280;20471;49.680;20.074;2023-02-11T11:23:17;98141.27;;;3.97;54.96
34205;BME280;20471;49.680;20.074;2023-02-11T11:28:27;98123.14;;;3.88;55.09
34205;BME280;20471;49.680;20.074;2023-02-11T11:30:56;98119.48;;;3.89;55.26
34205;BME280;20471;49.680;20.074;2023-02-11T11:33:33;98112.36;;;3.95;55.51
34205;BME280;20471;49.680;20.074;2023-02-11T11:36:08;98096.80;;;3.95;55.38
34205;BME280;20471;49.680;20.074;2023-02-11T11:38:43;98089.64;;;3.95;55.38
34205;BME280;20471;49.680;20.074;2023-02-11T11:41:24;98079.75;;;3.95;55.35
34205;BME280;20471;49.680;20.074;2023-02-11T11:46:28;98066.43;;;4.05;55.62
34205;BME280;20471;49.680;20.074;2023-02-11T11:49:16;98052.65;;;4.15;55.75
34205;BME280;20471;49.680;20.074;2023-02-11T11:52:14;98055.75;;;4.24;55.66
34205;BME280;20471;49.680;20.074;2023-02-11T11:54:52;98057.20;;;4.53;55.70
34205;BME280;20471;49.680;20.074;2023-02-11T11:57:25;98062.05;;;4.96;55.79
34205;BME280;20471;49.680;20.074;2023-02-11T11:59:56;98063.92;;;5.28;55.30
34205;BME280;20471;49.680;20.074;2023-02-11T12:05:26;98059.89;;;5.91;54.73
34205;BME280;20471;49.680;20.074;2023-02-11T12:08:21;98055.11;;;6.15;54.40
34205;BME280;20471;49.680;20.074;2023-02-11T12:16:42;98071.22;;;6.42;53.42
34205;BME280;20471;49.680;20.074;2023-02-11T12:22:35;98090.23;;;6.43;53.42
34205;BME280;20471;49.680;20.074;2023-02-11T12:28:11;98084.03;;;6.22;53.27
34205;BME280;20471;49.680;20.074;2023-02-11T12:31:08;98085.06;;;6.09;53.17
34205;BME280;20471;49.680;20.074;2023-02-11T12:44:37;98097.45;;;5.75;53.31
34205;BME280;20471;49.680;20.074;2023-02-11T12:47:24;98102.59;;;5.66;53.43
34205;BME280;20471;49.680;20.074;2023-02-11T12:50:34;98092.81;;;5.56;53.44
34205;BME280;20471;49.680;20.074;2023-02-11T12:56:13;98095.98;;;5.24;53.84
34205;BME280;20471;49.680;20.074;2023-02-11T12:58:46;98101.29;;;5.18;54.04
34205;BME280;20471;49.680;20.074;2023-02-11T13:01:21;98100.17;;;5.11;54.07
34205;BME280;20471;49.680;20.074;2023-02-11T13:03:56;98101.92;;;5.05;54.21
34205;BME280;20471;49.680;20.074;2023-02-11T13:06:34;98100.65;;;5.00;54.30
34205;BME280;20471;49.680;20.074;2023-02-11T13:09:13;98094.77;;;4.97;54.42
34205;BME280;20471;49.680;20.074;2023-02-11T13:11:48;98095.48;;;4.93;54.63
34205;BME280;20471;49.680;20.074;2023-02-11T13:14:29;98093.31;;;4.90;54.66
34205;BME280;20471;49.680;20.074;2023-02-11T13:17:03;98081.02;;;4.87;54.83
34205;BME280;20471;49.680;20.074;2023-02-11T13:19:47;98074.20;;;4.80;54.97
34205;BME280;20471;49.680;20.074;2023-02-11T13:22:27;98063.76;;;4.78;55.08
34205;BME280;20471;49.680;20.074;2023-02-11T13:30:27;98044.19;;;4.67;55.44
34205;BME280;20471;49.680;20.074;2023-02-11T13:38:05;98040.54;;;4.41;55.76
34205;BME280;20471;49.680;20.074;2023-02-11T13:41:01;98034.08;;;4.39;55.86
34205;BME280;20471;49.680;20.074;2023-02-11T13:43:35;98036.89;;;4.36;56.11
34205;BME280;20471;49.680;20.074;2023-02-11T13:46:06;98037.09;;;4.34;56.25
34205;BME280;20471;49.680;20.074;2023-02-11T13:48:38;98035.19;;;4.35;56.34
34205;BME280;20471;49.680;20.074;2023-02-11T13:51:14;98027.61;;;4.35;56.57
34205;BME280;20471;49.680;20.074;2023-02-11T13:56:36;98035.52;;;4.28;56.75
34205;BME280;20471;49.680;20.074;2023-02-11T14:10:54;97991.00;;;3.97;57.62
34205;BME280;20471;49.680;20.074;2023-02-11T14:13:32;97988.44;;;3.89;57.68
34205;BME280;20471;49.680;20.074;2023-02-11T14:16:12;97984.20;;;3.84;57.87
34205;BME280;20471;49.680;20.074;2023-02-11T14:21:16;97961.78;;;3.75;58.11
34205;BME280;20471;49.680;20.074;2023-02-11T14:23:49;97951.62;;;3.72;58.26
34205;BME280;20471;49.680;20.074;2023-02-11T14:28:56;97958.35;;;3.61;58.43
34205;BME280;20471;49.680;20.074;2023-02-11T14:31:57;97969.07;;;3.56;58.55
34205;BME280;20471;49.680;20.074;2023-02-11T14:40:44;98007.45;;;3.32;59.18
34205;BME280;20471;49.680;20.074;2023-02-11T14:43:24;98012.02;;;3.30;59.32
34205;BME280;20471;49.680;20.074;2023-02-11T14:45:56;98009.80;;;3.31;59.40
34205;BME280;20471;49.680;20.074;2023-02-11T14:48:30;98014.52;;;3.32;59.57
34205;BME280;20471;49.680;20.074;2023-02-11T14:53:33;98023.30;;;3.31;59.97
34205;BME280;20471;49.680;20.074;2023-02-11T14:56:09;98023.66;;;3.30;60.09
34205;BME280;20471;49.680;20.074;2023-02-11T14:58:46;98026.36;;;3.25;60.39
34205;BME280;20471;49.680;20.074;2023-02-11T15:01:34;98040.39;;;3.22;60.48
34205;BME280;20471;49.680;20.074;2023-02-11T15:04:05;98045.61;;;3.19;60.68
34205;BME280;20471;49.680;20.074;2023-02-11T15:06:48;98049.48;;;3.16;60.91
34205;BME280;20471;49.680;20.074;2023-02-11T15:09:24;98053.96;;;3.16;61.02
34205;BME280;20471;49.680;20.074;2023-02-11T15:12:00;98050.52;;;3.18;61.02
34205;BME280;20471;49.680;20.074;2023-02-11T15:14:33;98046.98;;;3.18;61.33
34205;BME280;20471;49.680;20.074;2023-02-11T15:17:05;98045.84;;;3.17;61.38
34205;BME280;20471;49.680;20.074;2023-02-11T15:19:44;98048.55;;;3.18;61.64
34205;BME280;20471;49.680;20.074;2023-02-11T15:22:36;98052.76;;;3.19;61.97
34205;BME280;20471;49.680;20.074;2023-02-11T15:25:12;98048.34;;;3.19;62.00
34205;BME280;20471;49.680;20.074;2023-02-11T15:27:45;98046.91;;;3.20;62.00
34205;BME280;20471;49.680;20.074;2023-02-11T15:33:02;98047.14;;;3.24;62.13
34205;BME280;20471;49.680;20.074;2023-02-11T15:35:36;98047.16;;;3.24;62.16
34205;BME280;20471;49.680;20.074;2023-02-11T15:38:09;98049.16;;;3.19;62.25
34205;BME280;20471;49.680;20.074;2023-02-11T15:40:51;98050.73;;;3.16;62.41
34205;BME280;20471;49.680;20.074;2023-02-11T15:43:20;98045.88;;;3.11;62.45
34205;BME280;20471;49.680;20.074;2023-02-11T15:48:36;98054.83;;;3.07;62.75
34205;BME280;20471;49.680;20.074;2023-02-11T15:51:26;98056.94;;;3.02;62.81
34205;BME280;20471;49.680;20.074;2023-02-11T15:54:00;98062.55;;;2.97;62.81
34205;BME280;20471;49.680;20.074;2023-02-11T15:56:37;98066.56;;;2.96;63.14
34205;BME280;20471;49.680;20.074;2023-02-11T15:59:33;98066.37;;;2.95;63.29
34205;BME280;20471;49.680;20.074;2023-02-11T16:02:19;98061.71;;;2.93;63.71
34205;BME280;20471;49.680;20.074;2023-02-11T16:04:53;98064.93;;;2.89;63.67
34205;BME280;20471;49.680;20.074;2023-02-11T16:07:45;98067.17;;;2.88;63.72
34205;BME280;20471;49.680;20.074;2023-02-11T16:15:51;98078.56;;;2.92;64.46
34205;BME280;20471;49.680;20.074;2023-02-11T16:18:59;98078.23;;;2.86;64.41
34205;BME280;20471;49.680;20.074;2023-02-11T16:21:55;98081.40;;;2.79;64.84
34205;BME280;20471;49.680;20.074;2023-02-11T16:24:33;98087.63;;;2.73;65.24
34205;BME280;20471;49.680;20.074;2023-02-11T16:27:13;98090.18;;;2.71;65.47
34205;BME280;20471;49.680;20.074;2023-02-11T16:29:47;98089.65;;;2.67;65.75
34205;BME280;20471;49.680;20.074;2023-02-11T16:32:28;98082.51;;;2.65;65.87
34205;BME280;20471;49.680;20.074;2023-02-11T16:34:58;98086.91;;;2.66;66.16
34205;BME280;20471;49.680;20.074;2023-02-11T16:37:28;98093.98;;;2.63;66.31
34205;BME280;20471;49.680;20.074;2023-02-11T16:39:58;98097.60;;;2.60;66.70
34205;BME280;20471;49.680;20.074;2023-02-11T16:42:28;98096.67;;;2.59;66.94
34205;BME280;20471;49.680;20.074;2023-02-11T16:44:57;98102.65;;;2.58;67.11
34205;BME280;20471;49.680;20.074;2023-02-11T16:47:27;98101.64;;;2.57;67.40
34205;BME280;20471;49.680;20.074;2023-02-11T16:49:59;98100.45;;;2.54;67.53
34205;BME280;20471;49.680;20.074;2023-02-11T16:52:29;98101.85;;;2.51;67.71
34205;BME280;20471;49.680;20.074;2023-02-11T16:54:58;98102.70;;;2.49;67.92